Time;durP1;ratioP1;P1;durP2;ratioP2;P2;SDS_P1;SDS_P2;PMS_P1;PMS_P2;Temp;Humidity;BMP_temperature;BMP_pressure;BME280_temperature;BME280_humidity;BME280_pressure;Samples;Min_cycle;Max_cycle;Signal;HPM_P1;HPM_P2
2022/02/26 00:00:23;;;;;;;0.00;0.00;;;;;;;10.07;64.34;101880.06;7375979;19;20695;-62
2022/02/26 00:02:49;;;;;;;0.00;0.00;;;;;;;10.06;64.14;101880.94;7377581;19;20090;-62
2022/02/26 00:05:14;;;;;;;0.00;0.00;;;;;;;10.06;64.39;101883.53;7360529;19;20017;-62
2022/02/26 00:07:40;;;;;;;0.00;0.00;;;;;;;10.07;64.01;101872.22;7370784;19;20032;-62
2022/02/26 00:10:06;;;;;;;0.00;0.00;;;;;;;10.08;64.43;101873.97;7359169;19;20019;-62
2022/02/26 00:12:32;;;;;;;0.00;0.00;;;;;;;10.08;64.17;101870.47;7361687;19;20014;-62
2022/02/26 00:14:57;;;;;;;0.00;0.00;;;;;;;10.10;64.31;101871.38;7359956;19;20070;-63
2022/02/26 00:17:23;;;;;;;0.00;0.00;;;;;;;10.13;64.58;101867.00;7365057;19;20018;-62
2022/02/26 00:19:48;;;;;;;0.00;0.00;;;;;;;10.18;64.70;101860.91;7366184;19;20439;-62
2022/02/26 00:22:14;;;;;;;0.00;0.00;;;;;;;10.21;64.38;101859.16;7362253;19;20362;-62
2022/02/26 00:24:39;;;;;;;0.00;0.00;;;;;;;10.25;64.49;101865.28;7364948;19;20038;-62
2022/02/26 00:27:05;;;;;;;0.00;0.00;;;;;;;10.30;64.68;101867.00;7367038;19;20067;-63
2022/02/26 00:29:34;;;;;;;0.00;0.00;;;;;;;10.32;64.13;101862.63;7368256;19;20478;-62
2022/02/26 00:32:03;;;;;;;0.10;0.10;;;;;;;10.31;63.62;101854.81;7362810;19;20014;-62
2022/02/26 00:34:29;;;;;;;0.00;0.00;;;;;;;10.40;63.68;101854.78;7367659;19;20014;-63
2022/02/26 00:36:55;;;;;;;0.00;0.00;;;;;;;10.43;63.40;101844.31;7358908;19;20019;-62
2022/02/26 00:39:20;;;;;;;0.00;0.00;;;;;;;10.43;63.21;101844.31;7367288;19;20749;-62
2022/02/26 00:41:46;;;;;;;0.00;0.00;;;;;;;10.36;62.47;101835.66;7359624;19;20014;-63
2022/02/26 00:44:11;;;;;;;0.00;0.00;;;;;;;10.48;62.66;101839.06;7370254;19;20018;-62
2022/02/26 00:46:37;;;;;;;0.00;0.00;;;;;;;10.49;62.82;101836.47;7368713;19;20493;-62
2022/02/26 00:51:48;;;;;;;0.00;0.00;;;;;;;10.54;62.64;101834.72;7364614;19;20474;-62
2022/02/26 00:54:14;;;;;;;0.00;0.00;;;;;;;10.57;62.30;101826.84;7364520;19;21338;-63
2022/02/26 00:56:41;;;;;;;0.08;0.08;;;;;;;10.59;62.39;101832.94;7360306;19;20069;-62
2022/02/26 00:59:07;;;;;;;0.03;0.03;;;;;;;10.62;62.27;101824.22;7364805;19;20039;-62
2022/02/26 01:01:32;;;;;;;0.00;0.00;;;;;;;10.64;62.33;101819.84;7367083;19;20024;-63
2022/02/26 01:03:58;;;;;;;0.00;0.00;;;;;;;10.65;62.11;101814.63;7358910;19;20488;-62
2022/02/26 01:06:24;;;;;;;0.00;0.00;;;;;;;10.65;62.23;101817.25;7362885;19;20006;-62
2022/02/26 01:08:57;;;;;;;0.00;0.00;;;;;;;10.62;62.19;101798.97;6975196;19;10001129;-62
2022/02/26 01:11:22;;;;;;;0.00;0.00;;;;;;;10.59;61.71;101799.00;1720711;19;10002039;-62
2022/02/26 01:13:48;;;;;;;0.00;0.00;;;;;;;10.74;61.87;101821.53;7354782;19;20018;-62
2022/02/26 01:16:13;;;;;;;0.00;0.00;;;;;;;10.76;61.86;101811.09;7359989;19;20010;-63
2022/02/26 01:18:39;;;;;;;0.00;0.00;;;;;;;10.73;61.29;101811.09;7351144;19;20018;-62
2022/02/26 01:21:04;;;;;;;0.00;0.00;;;;;;;10.80;61.69;101811.06;7360100;19;20006;-62
2022/02/26 01:23:30;;;;;;;0.00;0.00;;;;;;;10.76;61.39;101800.66;7357421;19;20010;-62
2022/02/26 01:25:55;;;;;;;0.00;0.00;;;;;;;10.85;61.63;101811.03;7363616;19;20007;-63
2022/02/26 01:28:21;;;;;;;0.10;0.10;;;;;;;10.87;61.28;101809.28;7360784;19;20031;-62
2022/02/26 01:30:47;;;;;;;0.00;0.00;;;;;;;10.90;61.78;101804.03;7364934;19;20090;-62
2022/02/26 01:33:13;;;;;;;0.00;0.00;;;;;;;10.89;61.67;101792.69;7363627;19;20014;-62
2022/02/26 01:35:39;;;;;;;0.08;0.08;;;;;;;10.93;62.48;101798.78;7361598;19;20081;-62
2022/02/26 01:38:04;;;;;;;0.00;0.00;;;;;;;10.91;61.51;101785.72;7364704;19;20034;-62
2022/02/26 01:40:30;;;;;;;0.08;0.08;;;;;;;10.91;61.60;101796.19;7359795;19;20007;-62
2022/02/26 01:42:55;;;;;;;0.00;0.00;;;;;;;10.91;61.51;101796.19;7366466;19;20046;-62
2022/02/26 01:45:23;;;;;;;0.00;0.00;;;;;;;10.91;61.03;101790.09;7367414;19;20025;-62
2022/02/26 01:47:48;;;;;;;0.10;0.10;;;;;;;10.89;62.40;101782.25;7365668;19;20026;-61
2022/02/26 01:50:16;;;;;;;0.00;0.00;;;;;;;10.89;61.71;101781.38;7358838;19;22233;-62
2022/02/26 01:52:42;;;;;;;0.00;0.00;;;;;;;10.87;62.01;101783.16;7359584;19;20015;-63
2022/02/26 01:55:09;;;;;;;0.00;0.00;;;;;;;10.85;61.45;101774.47;7365440;19;20014;-62
2022/02/26 01:57:35;;;;;;;0.00;0.00;;;;;;;10.83;61.71;101770.97;7365644;19;20501;-62
2022/02/26 02:00:01;;;;;;;0.00;0.00;;;;;;;10.77;61.64;101763.19;7360220;19;20021;-62
2022/02/26 02:02:26;;;;;;;0.00;0.00;;;;;;;10.76;61.82;101749.25;7365896;19;20090;-62
2022/02/26 02:04:52;;;;;;;0.00;0.00;;;;;;;10.76;61.29;101751.00;7365411;19;20014;-62
2022/02/26 02:07:17;;;;;;;0.00;0.00;;;;;;;10.73;61.13;101754.50;7360781;19;20090;-63
2022/02/26 02:09:43;;;;;;;0.00;0.00;;;;;;;10.70;61.49;101738.84;7360245;19;20015;-62
2022/02/26 02:12:09;;;;;;;0.00;0.00;;;;;;;10.56;61.04;101731.09;7365352;19;20054;-62
2022/02/26 02:14:35;;;;;;;0.00;0.00;;;;;;;10.61;61.78;101750.22;7357783;19;20100;-62
2022/02/26 02:17:02;;;;;;;0.00;0.00;;;;;;;10.59;62.05;101749.38;7364769;19;20117;-62
2022/02/26 02:19:28;;;;;;;0.00;0.00;;;;;;;10.55;61.38;101755.47;7367291;19;20479;-62
2022/02/26 02:21:54;;;;;;;0.00;0.00;;;;;;;10.51;61.71;101753.75;7370751;19;20007;-63
2022/02/26 02:24:19;;;;;;;0.00;0.00;;;;;;;10.49;61.93;101750.31;7371063;19;20014;-62
2022/02/26 02:26:45;;;;;;;0.00;0.00;;;;;;;10.35;61.90;101726.88;7370485;19;20042;-62
2022/02/26 02:29:12;;;;;;;0.00;0.00;;;;;;;10.41;61.77;101736.41;7373091;19;20014;-62
2022/02/26 02:31:37;;;;;;;0.00;0.00;;;;;;;10.33;61.53;101732.94;7363205;19;20006;-62
2022/02/26 02:34:03;;;;;;;0.00;0.00;;;;;;;10.34;61.63;101737.28;7357352;19;20031;-62
2022/02/26 02:36:29;;;;;;;0.00;0.00;;;;;;;10.33;61.67;101732.94;7362507;19;20048;-62
2022/02/26 02:38:54;;;;;;;0.00;0.00;;;;;;;10.33;61.99;101746.00;7361513;19;20808;-62
2022/02/26 02:41:20;;;;;;;0.00;0.00;;;;;;;10.27;62.16;101728.63;7363745;19;20047;-63
2022/02/26 02:43:46;;;;;;;0.00;0.00;;;;;;;10.29;61.98;101741.66;7356768;19;20015;-62
2022/02/26 02:46:11;;;;;;;0.08;0.08;;;;;;;10.32;61.86;101731.22;7364075;19;20010;-63
2022/02/26 02:48:38;;;;;;;0.00;0.00;;;;;;;10.33;61.66;101732.94;7357622;19;20690;-62
2022/02/26 02:51:05;;;;;;;0.00;0.00;;;;;;;10.33;61.79;101728.59;7361314;19;20010;-62
2022/02/26 02:53:30;;;;;;;0.00;0.00;;;;;;;10.35;62.26;101721.63;7360946;19;20055;-63
2022/02/26 02:55:56;;;;;;;0.00;0.00;;;;;;;10.37;62.07;101724.22;7363404;19;20010;-62
2022/02/26 02:58:23;;;;;;;0.08;0.08;;;;;;;10.37;62.16;101729.47;7356072;19;20010;-63
2022/02/26 03:00:50;;;;;;;0.00;0.00;;;;;;;10.33;62.01;101718.16;7358017;19;20022;-63
2022/02/26 03:03:16;;;;;;;0.00;0.00;;;;;;;10.33;62.03;101709.47;7353731;19;20031;-62
2022/02/26 03:05:41;;;;;;;0.00;0.00;;;;;;;10.32;61.87;101710.34;7365640;19;20554;-62
2022/02/26 03:08:07;;;;;;;0.00;0.00;;;;;;;10.32;61.75;101705.97;7364683;19;20019;-62
2022/02/26 03:10:35;;;;;;;0.00;0.00;;;;;;;10.30;61.38;101693.81;6791558;19;10001157;-62
2022/02/26 03:13:00;;;;;;;0.00;0.00;;;;;;;10.26;61.32;101690.34;1623660;19;10002061;-62
2022/02/26 03:15:26;;;;;;;0.00;0.00;;;;;;;10.23;61.63;101689.47;7368293;19;20006;-62
2022/02/26 03:17:52;;;;;;;0.00;0.00;;;;;;;10.22;62.14;101699.03;7367713;19;20021;-62
2022/02/26 03:20:18;;;;;;;0.00;0.00;;;;;;;10.19;61.67;101692.97;7362036;19;20017;-62
2022/02/26 03:22:43;;;;;;;0.00;0.00;;;;;;;10.16;61.50;101688.63;7359991;19;20017;-63
2022/02/26 03:25:09;;;;;;;0.00;0.00;;;;;;;10.14;61.56;101679.97;7354977;19;20007;-62
2022/02/26 03:27:35;;;;;;;0.00;0.00;;;;;;;10.10;61.40;101681.72;7340643;19;20010;-62
2022/02/26 03:30:02;;;;;;;0.00;0.00;;;;;;;10.10;61.74;101679.09;7353146;19;20030;-63
2022/02/26 03:32:28;;;;;;;0.00;0.00;;;;;;;10.10;61.22;101673.03;7358925;19;20015;-62
2022/02/26 03:34:53;;;;;;;0.00;0.00;;;;;;;10.10;60.76;101666.06;7362885;19;20021;-63
2022/02/26 03:37:19;;;;;;;0.00;0.00;;;;;;;10.12;61.13;101659.06;7367501;19;20010;-62
2022/02/26 03:39:44;;;;;;;0.00;0.00;;;;;;;10.14;61.22;101669.53;7367988;19;20617;-62
2022/02/26 03:42:11;;;;;;;0.00;0.00;;;;;;;10.14;61.06;101667.78;7367246;19;20029;-63
2022/02/26 03:44:38;;;;;;;0.00;0.00;;;;;;;10.17;60.97;101671.22;7360769;19;20023;-63
2022/02/26 03:47:04;;;;;;;0.00;0.00;;;;;;;10.20;60.66;101664.25;7365465;19;20023;-63
2022/02/26 03:49:30;;;;;;;0.00;0.00;;;;;;;10.23;60.38;101669.44;7368105;19;20002;-63
2022/02/26 03:51:55;;;;;;;0.00;0.00;;;;;;;10.19;60.93;101635.53;7372309;19;20019;-62
2022/02/26 03:54:21;;;;;;;0.00;0.00;;;;;;;10.31;60.98;101661.63;7370305;19;20014;-62
2022/02/26 03:56:47;;;;;;;0.00;0.00;;;;;;;10.34;59.81;101656.34;7368483;19;20010;-63
2022/02/26 03:59:13;;;;;;;0.10;0.10;;;;;;;10.37;59.94;101651.13;7371343;19;20043;-63
2022/02/26 04:01:38;;;;;;;0.00;0.00;;;;;;;10.37;59.70;101635.47;7368498;19;20010;-62
2022/02/26 04:04:04;;;;;;;0.00;0.00;;;;;;;10.42;60.22;101632.81;7365661;19;20034;-62
2022/02/26 04:06:29;;;;;;;0.00;0.00;;;;;;;10.43;59.43;101619.75;7350387;19;20010;-62
2022/02/26 04:08:55;;;;;;;0.00;0.00;;;;;;;10.45;59.97;101614.53;7369838;19;20010;-62
2022/02/26 04:11:20;;;;;;;0.00;0.00;;;;;;;10.43;59.33;101619.75;7366574;19;20006;-62
2022/02/26 04:13:46;;;;;;;0.00;0.00;;;;;;;10.42;59.12;101615.41;7369378;19;20029;-63
2022/02/26 04:16:11;;;;;;;0.00;0.00;;;;;;;10.45;59.34;101612.78;7371003;19;20014;-62
2022/02/26 04:18:37;;;;;;;0.00;0.00;;;;;;;10.47;58.80;101620.59;7347423;19;20011;-62
2022/02/26 04:21:02;;;;;;;0.00;0.00;;;;;;;10.47;58.77;101620.59;7370061;19;20016;-62
2022/02/26 04:23:28;;;;;;;0.00;0.00;;;;;;;10.45;59.69;101620.63;7361968;19;20083;-62
2022/02/26 04:25:53;;;;;;;0.00;0.00;;;;;;;10.50;59.06;101625.81;7365513;19;20002;-63
2022/02/26 04:28:19;;;;;;;0.00;0.00;;;;;;;10.48;59.16;101623.19;7370382;19;20018;-62
2022/02/26 04:30:45;;;;;;;0.10;0.10;;;;;;;10.41;59.38;101608.47;7361258;19;20717;-62
2022/02/26 04:33:11;;;;;;;0.00;0.00;;;;;;;10.48;59.14;101610.13;7370475;19;20467;-62
2022/02/26 04:35:37;;;;;;;0.00;0.00;;;;;;;10.53;58.85;101592.69;7363737;19;20023;-62
2022/02/26 04:38:03;;;;;;;0.00;0.00;;;;;;;10.58;59.66;101601.34;7369346;19;20006;-63
2022/02/26 04:40:28;;;;;;;0.00;0.00;;;;;;;10.57;58.53;101593.53;7366695;19;20014;-62
2022/02/26 04:42:53;;;;;;;0.00;0.00;;;;;;;10.62;58.94;101591.75;7364633;19;20114;-62
2022/02/26 04:45:19;;;;;;;0.00;0.00;;;;;;;10.52;59.06;101575.28;7369839;19;20014;-62
2022/02/26 04:47:45;;;;;;;0.00;0.00;;;;;;;10.63;58.68;101581.28;7364038;19;20022;-62
2022/02/26 04:50:12;;;;;;;0.00;0.00;;;;;;;10.59;59.17;101569.16;7370004;19;20046;-63
2022/02/26 04:52:37;;;;;;;0.00;0.00;;;;;;;10.70;59.46;101591.69;7360978;19;20018;-63
2022/02/26 04:55:04;;;;;;;0.03;0.03;;;;;;;10.70;58.69;101583.88;7368428;19;20003;-62
2022/02/26 04:57:29;;;;;;;0.00;0.00;;;;;;;10.72;58.96;101569.03;7369310;19;20018;-62
2022/02/26 04:59:55;;;;;;;0.00;0.00;;;;;;;10.69;58.50;101569.91;7367418;19;20011;-62
2022/02/26 05:02:20;;;;;;;0.00;0.00;;;;;;;10.60;59.02;101549.97;7364768;19;20469;-63
2022/02/26 05:04:46;;;;;;;0.03;0.03;;;;;;;10.72;58.99;101572.50;7368295;19;20015;-62
2022/02/26 05:07:15;;;;;;;0.00;0.00;;;;;;;10.72;59.01;101574.25;7369009;19;20011;-62
2022/02/26 05:09:41;;;;;;;0.00;0.00;;;;;;;10.72;59.21;101569.03;7364972;19;21277;-62
2022/02/26 05:12:08;;;;;;;0.00;0.00;;;;;;;10.74;59.91;101573.34;7369591;19;20041;-62
2022/02/26 05:14:33;;;;;;;0.00;0.00;;;;;;;10.74;59.57;101567.25;7356331;19;20021;-62
2022/02/26 05:16:59;;;;;;;0.00;0.00;;;;;;;10.77;59.46;101570.72;7372422;19;20453;-63
2022/02/26 05:19:24;;;;;;;0.00;0.00;;;;;;;10.77;59.89;101567.22;7366890;19;20029;-62
2022/02/26 05:21:50;;;;;;;0.00;0.00;;;;;;;10.77;60.29;101581.16;7360999;19;20014;-63
2022/02/26 05:24:16;;;;;;;0.00;0.00;;;;;;;10.82;60.35;101581.13;7367662;19;20033;-62
2022/02/26 05:26:41;;;;;;;0.00;0.00;;;;;;;10.82;60.35;101571.53;7365369;19;20610;-62
2022/02/26 05:29:07;;;;;;;0.00;0.00;;;;;;;10.84;60.72;101579.34;7357889;19;20003;-63
2022/02/26 05:31:33;;;;;;;0.00;0.00;;;;;;;10.84;60.75;101563.66;7369299;19;20018;-62
2022/02/26 05:33:59;;;;;;;0.00;0.00;;;;;;;10.82;60.85;101568.06;7362491;19;20013;-63
2022/02/26 05:36:24;;;;;;;0.00;0.00;;;;;;;10.85;60.90;101566.28;7368941;19;20007;-62
2022/02/26 05:38:49;;;;;;;0.00;0.00;;;;;;;10.79;60.63;101544.56;7364036;19;20010;-63
2022/02/26 05:41:15;;;;;;;0.00;0.00;;;;;;;10.86;60.61;101561.94;7368900;19;20002;-63
2022/02/26 05:43:40;;;;;;;0.00;0.00;;;;;;;10.85;60.36;101545.38;7364699;19;20003;-62
2022/02/26 05:46:06;;;;;;;0.00;0.00;;;;;;;10.85;60.68;101541.91;7364608;19;20898;-64
2022/02/26 05:48:31;;;;;;;0.00;0.00;;;;;;;10.85;60.67;101536.69;7369591;19;20003;-62
2022/02/26 05:50:57;;;;;;;0.00;0.00;;;;;;;10.85;60.73;101539.28;7362884;19;20018;-64
2022/02/26 05:53:22;;;;;;;0.00;0.00;;;;;;;10.84;60.75;101542.75;7369065;19;20450;-62
2022/02/26 05:55:48;;;;;;;0.00;0.00;;;;;;;10.82;61.16;101536.72;7362923;19;20018;-62
2022/02/26 05:58:14;;;;;;;0.10;0.10;;;;;;;10.84;61.18;101540.16;7368532;19;20051;-62
2022/02/26 06:00:39;;;;;;;0.00;0.00;;;;;;;10.84;61.15;101534.94;7366070;19;20014;-63
2022/02/26 06:03:21;;;;;;;0.00;0.00;;;;;;;10.89;61.48;101535.75;3125035;19;10023460;-62
2022/02/26 06:05:47;;;;;;;0.10;0.10;;;;;;;10.75;60.86;101511.53;6147751;19;10001215;-62
2022/02/26 06:08:13;;;;;;;0.10;0.10;;;;;;;10.77;61.01;101512.38;7360815;19;20018;-63
2022/02/26 06:10:38;;;;;;;0.00;0.00;;;;;;;10.78;61.18;101512.34;7368647;19;20475;-62
2022/02/26 06:13:04;;;;;;;0.00;0.00;;;;;;;10.82;61.10;101518.41;7367393;19;20018;-62
2022/02/26 06:15:29;;;;;;;0.00;0.00;;;;;;;10.74;60.97;101513.25;7363741;19;20021;-62
2022/02/26 06:17:55;;;;;;;0.00;0.00;;;;;;;10.86;61.29;101531.44;7367458;19;20105;-63
2022/02/26 06:20:20;;;;;;;0.00;0.00;;;;;;;10.87;61.21;101534.91;7361957;19;20011;-63
2022/02/26 06:22:46;;;;;;;0.00;0.00;;;;;;;10.89;61.72;101530.50;7366565;19;20010;-63
2022/02/26 06:25:11;;;;;;;0.10;0.10;;;;;;;10.90;61.38;101537.50;7363407;19;20022;-62
2022/02/26 06:27:38;;;;;;;0.00;0.00;;;;;;;10.86;61.74;101525.34;7363929;19;20017;-62
2022/02/26 06:30:05;;;;;;;0.00;0.00;;;;;;;10.88;61.84;101534.03;7362820;19;20180;-62
2022/02/26 06:32:31;;;;;;;0.00;0.00;;;;;;;10.91;61.82;101534.00;7365317;19;20032;-63
2022/02/26 06:34:56;;;;;;;0.10;0.10;;;;;;;10.91;62.27;101539.22;7369549;19;20017;-62
2022/02/26 06:37:22;;;;;;;0.00;0.00;;;;;;;10.92;62.26;101535.72;7363617;19;20011;-63
2022/02/26 06:39:47;;;;;;;0.00;0.00;;;;;;;10.91;62.14;101531.38;7366428;19;20014;-63
2022/02/26 06:42:13;;;;;;;0.00;0.00;;;;;;;10.90;61.99;101527.91;7366061;19;20053;-63
2022/02/26 06:44:38;;;;;;;0.00;0.00;;;;;;;10.92;62.14;101530.50;7358515;19;20636;-63
2022/02/26 06:47:04;;;;;;;0.00;0.00;;;;;;;10.76;61.23;101481.91;7365890;19;20010;-63
2022/02/26 06:49:29;;;;;;;0.00;0.00;;;;;;;10.87;61.72;101503.56;7354142;19;20014;-63
2022/02/26 06:51:55;;;;;;;0.10;0.10;;;;;;;10.87;61.90;101507.03;7362690;19;20010;-62
2022/02/26 06:54:20;;;;;;;0.00;0.00;;;;;;;10.85;61.58;101489.66;7365239;19;20022;-63
2022/02/26 06:56:46;;;;;;;0.00;0.00;;;;;;;10.86;61.56;101491.38;7366358;19;20032;-62
2022/02/26 06:59:12;;;;;;;0.00;0.00;;;;;;;10.76;61.28;101492.38;7366547;19;20018;-62
2022/02/26 07:01:37;;;;;;;0.00;0.00;;;;;;;10.89;61.62;101514.84;7361612;19;20006;-62
2022/02/26 07:04:03;;;;;;;0.00;0.00;;;;;;;10.90;61.46;101495.69;7364942;19;20518;-62
2022/02/26 07:06:28;;;;;;;0.00;0.00;;;;;;;10.90;61.12;101495.69;7352046;19;20033;-62
2022/02/26 07:08:54;;;;;;;0.00;0.00;;;;;;;10.91;60.72;101494.81;7365422;19;20096;-62
2022/02/26 07:11:19;;;;;;;0.00;0.00;;;;;;;10.93;61.22;101495.63;7364695;19;20039;-62
2022/02/26 07:13:45;;;;;;;0.00;0.00;;;;;;;10.93;61.09;101495.63;7364074;19;20006;-63
2022/02/26 07:16:10;;;;;;;0.00;0.00;;;;;;;10.94;61.01;101492.13;7364509;19;20029;-63
2022/02/26 07:18:36;;;;;;;0.00;0.00;;;;;;;10.96;61.42;101490.38;7356503;19;20018;-63
2022/02/26 07:21:01;;;;;;;0.00;0.00;;;;;;;10.99;61.46;101492.09;7363569;19;20013;-62
2022/02/26 07:23:26;;;;;;;0.00;0.00;;;;;;;10.99;61.20;101490.34;7360901;19;20090;-63
2022/02/26 07:25:52;;;;;;;0.08;0.08;;;;;;;10.98;60.52;101478.16;7364010;19;20497;-62
2022/02/26 07:28:17;;;;;;;0.00;0.00;;;;;;;11.00;60.44;101468.56;7353780;19;20007;-62
2022/02/26 07:30:43;;;;;;;0.00;0.00;;;;;;;11.01;60.47;101472.91;7363552;19;20015;-63
2022/02/26 07:33:09;;;;;;;0.00;0.00;;;;;;;11.04;60.51;101480.69;7363804;19;20002;-62
2022/02/26 07:35:36;;;;;;;0.10;0.10;;;;;;;11.05;60.32;101479.84;7357618;19;20026;-62
2022/02/26 07:38:02;;;;;;;0.00;0.00;;;;;;;11.05;60.21;101465.88;7362137;19;20011;-62
2022/02/26 07:40:28;;;;;;;0.00;0.00;;;;;;;11.10;59.59;101459.72;7359862;19;20026;-62
2022/02/26 07:42:54;;;;;;;0.00;0.00;;;;;;;11.09;59.79;101463.19;7342783;19;20018;-62
2022/02/26 07:45:19;;;;;;;0.00;0.00;;;;;;;11.01;60.02;101446.78;7356989;19;20018;-62
2022/02/26 07:47:44;;;;;;;0.00;0.00;;;;;;;11.11;59.63;101469.28;7364122;19;20094;-63
2022/02/26 07:50:10;;;;;;;0.00;0.00;;;;;;;11.09;59.71;101455.34;7348029;19;20345;-62
2022/02/26 07:52:35;;;;;;;0.10;0.10;;;;;;;11.14;59.82;101466.63;7363591;19;20671;-63
2022/02/26 07:55:04;;;;;;;0.10;0.10;;;;;;;11.15;59.72;101460.53;7348042;19;20029;-62
2022/02/26 07:57:30;;;;;;;0.00;0.00;;;;;;;11.14;59.98;101478.81;7283128;19;43915;-63
2022/02/26 07:59:55;;;;;;;0.00;0.00;;;;;;;11.12;60.16;101471.00;1146724;19;10002003;-63
2022/02/26 08:02:21;;;;;;;0.00;0.00;;;;;;;11.14;60.23;101487.53;7363571;19;20011;-62
2022/02/26 08:04:47;;;;;;;0.00;0.00;;;;;;;11.17;59.64;101479.66;7355225;19;20014;-63
2022/02/26 08:07:13;;;;;;;0.08;0.08;;;;;;;11.10;59.59;101470.19;7362459;19;20374;-62
2022/02/26 08:09:39;;;;;;;0.00;0.00;;;;;;;11.18;59.17;101470.06;7360213;19;20017;-62
2022/02/26 08:12:05;;;;;;;0.10;0.10;;;;;;;11.10;59.20;101449.28;7359386;19;20007;-63
2022/02/26 08:14:32;;;;;;;0.00;0.00;;;;;;;11.18;59.07;101465.69;7354644;19;20931;-63
2022/02/26 08:16:58;;;;;;;0.00;0.00;;;;;;;11.18;58.99;101460.47;7363408;19;20451;-62
2022/02/26 08:19:23;;;;;;;0.00;0.00;;;;;;;11.17;59.53;101458.75;7356737;19;20023;-63
2022/02/26 08:21:48;;;;;;;0.08;0.08;;;;;;;11.21;59.43;101453.50;7353046;19;20013;-63
2022/02/26 08:24:14;;;;;;;0.03;0.03;;;;;;;11.24;59.43;101471.75;7363521;19;20022;-63
2022/02/26 08:26:40;;;;;;;0.00;0.00;;;;;;;11.25;59.24;101481.31;7368387;19;20029;-63
2022/02/26 08:29:05;;;;;;;0.00;0.00;;;;;;;11.24;58.51;101463.91;7357417;19;20010;-63
2022/02/26 08:31:31;;;;;;;0.00;0.00;;;;;;;11.24;57.97;101454.28;7368577;19;20104;-63
2022/02/26 08:33:56;;;;;;;0.03;0.03;;;;;;;11.25;58.25;101455.16;7366968;19;20006;-62
2022/02/26 08:36:22;;;;;;;0.10;0.10;;;;;;;11.27;58.48;101458.63;7368205;19;20014;-63
2022/02/26 08:38:49;;;;;;;0.00;0.00;;;;;;;11.26;58.35;101462.16;7365682;19;20360;-62
2022/02/26 08:41:14;;;;;;;0.00;0.00;;;;;;;11.25;57.95;101463.00;7358683;19;20025;-62
2022/02/26 08:43:40;;;;;;;0.10;0.10;;;;;;;11.28;58.32;101461.22;7360942;19;20473;-62
2022/02/26 08:46:05;;;;;;;0.00;0.00;;;;;;;11.27;58.44;101463.88;7367568;19;20018;-63
2022/02/26 08:48:31;;;;;;;0.00;0.00;;;;;;;11.27;58.16;101459.50;7360899;19;20014;-63
2022/02/26 08:50:59;;;;;;;0.00;0.00;;;;;;;11.28;58.42;101460.34;7367130;19;20019;-62
2022/02/26 08:53:24;;;;;;;0.05;0.05;;;;;;;11.27;58.14;101472.56;7367221;19;20002;-62
2022/02/26 08:55:50;;;;;;;0.10;0.10;;;;;;;11.28;58.38;101470.81;7364487;19;20010;-62
2022/02/26 08:58:15;;;;;;;0.00;0.00;;;;;;;11.28;58.33;101474.28;7366840;19;20010;-62
2022/02/26 09:00:41;;;;;;;0.00;0.00;;;;;;;11.26;58.33;101473.47;7367906;19;20751;-64
2022/02/26 09:03:06;;;;;;;0.00;0.00;;;;;;;11.26;58.18;101463.00;7363579;19;20021;-62
2022/02/26 09:05:32;;;;;;;0.00;0.00;;;;;;;11.30;58.25;101448.13;7366056;19;20425;-63
2022/02/26 09:07:57;;;;;;;0.00;0.00;;;;;;;11.30;58.63;101448.13;7366997;19;20023;-62
2022/02/26 09:10:23;;;;;;;0.00;0.00;;;;;;;11.31;58.31;101439.41;7365333;19;20777;-63
2022/02/26 09:12:49;;;;;;;0.10;0.10;;;;;;;11.34;58.41;101434.13;7366897;19;20018;-62
2022/02/26 09:15:16;;;;;;;0.00;0.00;;;;;;;11.35;58.52;101435.84;7358360;19;20021;-62
2022/02/26 09:17:42;;;;;;;0.00;0.00;;;;;;;11.38;58.64;101420.13;7367302;19;20104;-63
2022/02/26 09:20:10;;;;;;;0.10;0.10;;;;;;;11.38;58.49;101404.44;7360787;19;20104;-62
2022/02/26 09:22:36;;;;;;;0.00;0.00;;;;;;;11.41;58.42;101420.94;7363242;19;20077;-62
2022/02/26 09:25:01;;;;;;;0.10;0.10;;;;;;;11.38;58.07;101414.91;7356050;19;20096;-63
2022/02/26 09:27:27;;;;;;;0.00;0.00;;;;;;;11.43;58.28;101415.69;7359666;19;20018;-63
2022/02/26 09:29:52;;;;;;;0.10;0.10;;;;;;;11.44;58.01;101443.56;7361027;19;21962;-62
2022/02/26 09:32:18;;;;;;;0.10;0.10;;;;;;;11.46;58.43;101422.63;7354538;19;20037;-62
2022/02/26 09:34:44;;;;;;;0.03;0.03;;;;;;;11.46;57.93;101409.56;7361909;19;20007;-62
2022/02/26 09:37:09;;;;;;;0.00;0.00;;;;;;;11.49;57.95;101407.75;7361914;19;20006;-63
2022/02/26 09:39:35;;;;;;;0.10;0.10;;;;;;;11.51;57.75;101415.59;7359074;19;20378;-62
2022/02/26 09:42:02;;;;;;;0.00;0.00;;;;;;;11.50;57.69;101414.69;7365625;19;20011;-63
2022/02/26 09:44:28;;;;;;;;;;;;;;;11.57;57.86;101415.50;7349270;19;20095;-62
2022/02/26 09:46:53;;;;;;;0.00;0.00;;;;;;;11.55;57.09;101418.09;7358704;19;19922;-62
2022/02/26 09:49:19;;;;;;;0.00;0.00;;;;;;;11.57;57.29;101421.59;7358172;19;20025;-62
2022/02/26 09:51:45;;;;;;;0.00;0.00;;;;;;;11.56;56.99;101404.16;7354222;19;20023;-62
2022/02/26 09:54:14;;;;;;;0.00;0.00;;;;;;;11.57;56.37;101395.44;7364770;19;20022;-62
2022/02/26 09:56:39;;;;;;;0.00;0.00;;;;;;;11.60;56.82;101399.72;7362668;19;20425;-62
2022/02/26 09:59:05;;;;;;;0.00;0.00;;;;;;;11.61;56.65;101386.66;7364157;19;20007;-63
2022/02/26 10:01:31;;;;;;;0.00;0.00;;;;;;;11.66;56.38;101390.06;7362418;19;20002;-63
2022/02/26 10:04:11;;;;;;;0.00;0.00;;;;;;;11.73;56.41;101410.88;7366601;19;20113;-63
2022/02/26 10:07:13;;;;;;;0.00;0.00;;;;;;;11.77;56.38;101396.88;4386907;19;10216159;-63
2022/02/26 10:09:43;;;;;;;0.00;0.00;;;;;;;11.79;55.85;101395.06;5533506;19;10001546;-62
2022/02/26 10:12:28;;;;;;;0.00;0.00;;;;;;;11.82;56.02;101402.91;7364927;19;20007;-64
2022/02/26 10:15:07;;;;;;;0.00;0.00;;;;;;;11.82;56.22;101389.84;7359978;19;20041;-63
2022/02/26 10:17:39;;;;;;;0.00;0.00;;;;;;;11.76;56.36;101379.41;7361270;19;20033;-63
2022/02/26 10:20:06;;;;;;;0.00;0.00;;;;;;;11.78;56.84;101388.97;7355549;19;20010;-64
2022/02/26 10:22:34;;;;;;;0.00;0.00;;;;;;;11.72;56.66;101377.75;7358396;19;20018;-62
2022/02/26 10:45:04;;;;;;;0.00;0.00;;;;;;;10.51;58.23;101402.97;7154164;19;3695198;-62
2022/02/26 10:47:32;;;;;;;0.00;0.00;;;;;;;10.53;58.64;101449.03;7384405;19;20029;-62
2022/02/26 10:49:58;;;;;;;0.00;0.00;;;;;;;10.61;58.46;101404.59;7388334;19;20014;-63
2022/02/26 10:52:30;;;;;;;0.00;0.00;;;;;;;10.79;57.95;101419.16;7386888;19;20006;-62
2022/02/26 10:54:56;;;;;;;0.00;0.00;;;;;;;10.87;57.96;101417.31;7384345;19;20006;-62
2022/02/26 10:57:26;;;;;;;0.00;0.00;;;;;;;11.05;57.06;101414.50;7387561;19;20010;-62
2022/02/26 10:59:53;;;;;;;0.00;0.00;;;;;;;11.22;57.27;101405.53;7382466;19;20006;-62
2022/02/26 11:02:25;;;;;;;0.00;0.00;;;;;;;11.36;56.91;101390.53;7378905;19;20006;-62
2022/02/26 11:04:52;;;;;;;0.00;0.00;;;;;;;11.48;56.36;101390.34;7385020;19;20591;-62
2022/02/26 11:07:19;;;;;;;0.00;0.00;;;;;;;11.59;56.03;101396.25;7379378;19;20018;-62
2022/02/26 11:09:47;;;;;;;0.00;0.00;;;;;;;11.68;56.30;101403.09;7388423;19;20013;-63
2022/02/26 11:12:15;;;;;;;0.00;0.00;;;;;;;11.75;56.04;101391.63;7381550;19;20078;-62
2022/02/26 11:14:54;;;;;;;0.00;0.00;;;;;;;11.82;55.94;101384.59;7389343;19;20014;-63
2022/02/26 11:17:23;;;;;;;0.00;0.00;;;;;;;11.85;55.95;101381.91;7383018;19;20032;-62
2022/02/26 11:19:52;;;;;;;0.00;0.00;;;;;;;11.85;56.29;101395.00;7388126;19;20002;-63
2022/02/26 11:22:18;;;;;;;0.00;0.00;;;;;;;11.96;55.89;101382.59;7386540;19;20025;-62
2022/02/26 11:24:44;;;;;;;0.03;0.03;;;;;;;11.91;56.01;101379.19;7385245;19;20010;-62
2022/02/26 11:27:09;;;;;;;0.00;0.00;;;;;;;12.01;56.24;101393.84;7388980;19;20006;-63
2022/02/26 11:29:35;;;;;;;0.00;0.00;;;;;;;12.02;56.05;101374.66;7387847;19;20085;-63
2022/02/26 11:32:05;;;;;;;0.00;0.00;;;;;;;12.04;55.89;101385.09;7391441;19;20497;-62
2022/02/26 11:34:33;;;;;;;0.00;0.00;;;;;;;12.04;56.04;101365.00;7389148;19;20038;-62
2022/02/26 11:37:01;;;;;;;0.00;0.00;;;;;;;12.07;55.92;101375.44;7390822;19;20010;-62
2022/02/26 11:39:30;;;;;;;0.10;0.10;;;;;;;12.08;55.57;101371.91;7381331;19;20014;-62
2022/02/26 11:42:22;;;;;;;0.00;0.00;;;;;;;12.10;55.95;101370.13;7382618;19;20022;-62